Time;durP1;ratioP1;P1;durP2;ratioP2;P2;SDS_P1;SDS_P2;PMS_P1;PMS_P2;Temp;Humidity;BMP_temperature;BMP_pressure;BME280_temperature;BME280_humidity;BME280_pressure;Samples;Min_cycle;Max_cycle;Signal;HPM_P1;HPM_P2
2024/01/16 00:01:20;;;;;;;5.83;2.37;;;1.30;99.90;;;;;;5052719;28;20052;-52
2024/01/16 00:03:46;;;;;;;5.43;2.40;;;1.30;99.90;;;;;;5052841;28;20071;-53
2024/01/16 00:06:12;;;;;;;6.57;2.97;;;1.30;99.90;;;;;;5052938;28;20029;-53
2024/01/16 00:08:38;;;;;;;5.60;2.33;;;1.30;99.90;;;;;;5052740;28;20041;-55
2024/01/16 00:11:03;;;;;;;6.73;2.20;;;1.20;99.90;;;;;;5052442;28;20040;-55
2024/01/16 00:13:29;;;;;;;4.27;1.87;;;1.20;99.90;;;;;;5052693;28;20087;-54
2024/01/16 00:15:56;;;;;;;7.73;2.93;;;1.20;99.90;;;;;;5053003;28;20114;-54
2024/01/16 00:18:22;;;;;;;5.73;2.27;;;1.20;99.90;;;;;;5052474;28;20448;-53
2024/01/16 00:20:48;;;;;;;4.40;2.10;;;1.20;99.90;;;;;;5052390;28;20032;-56
2024/01/16 00:23:14;;;;;;;7.93;2.40;;;1.20;99.90;;;;;;5052285;28;20029;-54
2024/01/16 00:25:39;;;;;;;5.73;1.80;;;1.20;99.90;;;;;;5052458;28;20029;-55
2024/01/16 00:28:05;;;;;;;8.33;2.40;;;1.20;99.90;;;;;;5052398;28;20071;-53
2024/01/16 00:30:31;;;;;;;5.40;2.33;;;1.20;99.90;;;;;;5052187;28;20124;-57
2024/01/16 00:32:57;;;;;;;8.43;2.33;;;1.20;99.90;;;;;;5052252;28;20060;-53
2024/01/16 00:35:23;;;;;;;6.77;2.00;;;1.10;99.90;;;;;;5052279;28;20045;-54
2024/01/16 00:37:48;;;;;;;5.53;2.40;;;1.10;99.90;;;;;;5052175;28;20090;-55
2024/01/16 00:40:14;;;;;;;5.83;2.57;;;1.10;99.90;;;;;;5050973;28;20025;-56
2024/01/16 00:42:40;;;;;;;3.77;1.80;;;1.10;99.90;;;;;;5052082;28;20079;-51
2024/01/16 00:45:05;;;;;;;3.13;1.77;;;1.20;99.90;;;;;;5052223;28;20032;-55
2024/01/16 00:47:31;;;;;;;3.03;1.80;;;1.20;99.90;;;;;;5052164;28;20553;-56
2024/01/16 00:49:57;;;;;;;5.63;1.73;;;1.10;99.90;;;;;;5051274;28;20230;-52
2024/01/16 00:52:22;;;;;;;5.60;1.87;;;1.10;99.90;;;;;;5051884;28;20116;-55
2024/01/16 00:54:48;;;;;;;9.07;2.40;;;1.10;99.90;;;;;;5052048;28;20429;-54
2024/01/16 00:57:16;;;;;;;4.87;2.43;;;1.00;99.90;;;;;;5052023;28;20025;-53
2024/01/16 00:59:41;;;;;;;4.10;1.70;;;1.10;99.90;;;;;;5051795;28;20045;-53
2024/01/16 01:02:09;;;;;;;4.10;1.53;;;1.10;99.90;;;;;;5051704;28;20117;-54
2024/01/16 01:04:35;;;;;;;3.43;1.90;;;1.10;99.90;;;;;;5051874;28;20482;-54
2024/01/16 01:07:00;;;;;;;7.40;2.23;;;1.10;99.90;;;;;;5051888;28;20134;-53
2024/01/16 01:09:26;;;;;;;4.07;1.70;;;1.10;99.90;;;;;;5051684;28;20033;-53
2024/01/16 01:11:52;;;;;;;4.57;1.90;;;1.00;99.90;;;;;;5051661;28;20029;-55
2024/01/16 01:14:17;;;;;;;10.40;2.07;;;1.00;99.90;;;;;;5050564;28;20480;-55
2024/01/16 01:16:43;;;;;;;4.30;1.70;;;1.00;99.90;;;;;;5051777;28;20040;-51
2024/01/16 01:19:08;;;;;;;5.13;1.97;;;1.00;99.90;;;;;;5051350;28;20028;-56
2024/01/16 01:21:35;;;;;;;8.90;2.27;;;1.00;99.90;;;;;;5051567;28;20045;-56
2024/01/16 01:24:01;;;;;;;4.30;2.20;;;0.90;99.90;;;;;;5051586;28;20056;-56
2024/01/16 01:26:27;;;;;;;4.27;2.00;;;1.00;99.90;;;;;;5051662;28;20067;-50
2024/01/16 01:28:52;;;;;;;5.50;2.23;;;0.90;99.90;;;;;;5051522;28;20037;-55
2024/01/16 01:31:18;;;;;;;4.40;2.10;;;0.90;99.90;;;;;;5051484;28;20029;-53
2024/01/16 01:33:43;;;;;;;6.20;2.30;;;0.90;99.90;;;;;;5050217;28;20501;-53
2024/01/16 01:36:09;;;;;;;7.87;2.17;;;0.90;99.90;;;;;;5051523;28;20085;-54
2024/01/16 01:38:35;;;;;;;4.60;2.10;;;0.90;99.90;;;;;;5051280;28;20470;-55
2024/01/16 01:41:01;;;;;;;6.27;2.60;;;0.90;99.90;;;;;;5051355;28;20110;-54
2024/01/16 01:43:27;;;;;;;8.77;2.77;;;0.90;99.90;;;;;;5051424;28;20060;-51
2024/01/16 01:46:10;;;;;;;5.83;2.60;;;0.90;99.90;;;;;;5050306;28;20127;-50
2024/01/16 01:48:41;;;;;;;8.17;2.53;;;0.90;99.90;;;;;;5051331;28;20035;-53
2024/01/16 01:51:08;;;;;;;7.60;3.00;;;0.90;99.90;;;;;;5051309;28;20058;-52
2024/01/16 01:53:34;;;;;;;8.20;2.97;;;1.00;99.90;;;;;;5051270;28;20029;-55
2024/01/16 01:56:05;;;;;;;10.70;2.70;;;1.00;99.90;;;;;;5051376;28;20041;-54
2024/01/16 01:58:32;;;;;;;6.30;2.80;;;0.90;99.90;;;;;;5051258;28;20040;-51
2024/01/16 02:00:58;;;;;;;9.63;2.80;;;1.10;99.90;;;;;;5050476;28;20037;-57
2024/01/16 02:03:28;;;;;;;7.43;3.27;;;1.10;99.90;;;;;;5052411;28;20025;-56
2024/01/16 02:05:53;;;;;;;6.38;3.13;;;1.10;99.90;;;;;;5053926;28;20370;-57
2024/01/16 02:08:19;;;;;;;6.47;2.83;;;1.10;99.90;;;;;;5055084;28;20037;-55
2024/01/16 02:10:49;;;;;;;10.10;3.27;;;1.10;99.90;;;;;;5054860;28;20107;-54
2024/01/16 02:13:14;;;;;;;7.20;2.87;;;1.10;99.90;;;;;;5054785;28;20401;-52
2024/01/16 02:15:41;;;;;;;6.30;3.30;;;1.10;99.90;;;;;;5055186;28;20043;-53
2024/01/16 02:18:07;;;;;;;6.83;3.17;;;1.20;99.90;;;;;;5054839;28;20405;-52
2024/01/16 02:20:33;;;;;;;10.23;3.60;;;1.20;99.90;;;;;;5054623;28;20029;-52
2024/01/16 02:23:02;;;;;;;9.57;3.87;;;1.10;99.90;;;;;;5054547;28;20067;-53
2024/01/16 02:25:29;;;;;;;10.67;3.73;;;1.10;99.90;;;;;;5055218;28;20128;-53
2024/01/16 02:27:54;;;;;;;7.80;3.80;;;1.20;99.90;;;;;;5054595;28;20037;-57
2024/01/16 02:30:20;;;;;;;9.00;3.50;;;1.20;99.90;;;;;;5054501;28;20501;-54
2024/01/16 02:32:45;;;;;;;7.07;3.70;;;1.20;99.90;;;;;;5054724;28;20052;-51
2024/01/16 02:35:11;;;;;;;8.70;3.63;;;1.20;99.90;;;;;;5054569;28;20520;-56
2024/01/16 02:37:37;;;;;;;8.03;4.07;;;1.20;99.90;;;;;;5054363;28;20029;-56
2024/01/16 02:40:06;;;;;;;9.93;4.63;;;1.10;99.90;;;;;;5054245;28;20074;-52
2024/01/16 02:42:32;;;;;;;8.30;4.30;;;1.20;99.90;;;;;;5054292;28;20053;-55
2024/01/16 02:44:58;;;;;;;11.70;4.30;;;1.20;99.90;;;;;;5054418;28;20075;-54
2024/01/16 02:47:24;;;;;;;8.73;4.17;;;1.20;99.90;;;;;;5054312;28;20443;-54
2024/01/16 02:49:50;;;;;;;8.57;4.33;;;1.20;99.90;;;;;;5054197;28;20036;-51
2024/01/16 02:52:15;;;;;;;11.50;4.73;;;1.20;99.90;;;;;;5054004;28;20127;-54
2024/01/16 02:54:41;;;;;;;13.23;4.83;;;1.20;99.90;;;;;;5054248;28;20029;-56
2024/01/16 02:57:07;;;;;;;12.50;5.37;;;1.20;99.90;;;;;;5054092;28;20040;-56
2024/01/16 02:59:32;;;;;;;13.30;5.57;;;1.20;99.90;;;;;;5053928;28;20090;-54
2024/01/16 03:01:58;;;;;;;15.60;5.57;;;1.20;99.90;;;;;;5053925;28;20025;-55
2024/01/16 03:04:24;;;;;;;12.50;5.47;;;1.20;99.90;;;;;;5054048;28;20029;-54
2024/01/16 03:06:49;;;;;;;12.77;5.13;;;1.20;99.90;;;;;;5053973;28;20033;-53
2024/01/16 03:09:15;;;;;;;11.20;5.53;;;1.30;99.90;;;;;;5053925;28;20442;-52
2024/01/16 03:11:41;;;;;;;10.13;4.87;;;1.20;99.90;;;;;;5053751;28;20029;-51
2024/01/16 03:14:07;;;;;;;13.47;5.77;;;1.20;99.90;;;;;;5053277;28;20032;-54
2024/01/16 03:16:33;;;;;;;10.93;5.03;;;1.20;99.90;;;;;;5053876;28;20125;-52
2024/01/16 03:18:58;;;;;;;8.90;4.77;;;1.20;99.90;;;;;;5053648;28;20029;-53
2024/01/16 03:21:24;;;;;;;13.37;5.77;;;1.20;99.90;;;;;;5052319;28;20028;-55
2024/01/16 03:23:50;;;;;;;9.93;4.93;;;1.10;99.90;;;;;;5053506;28;20075;-55
2024/01/16 03:26:16;;;;;;;11.23;5.20;;;1.10;99.90;;;;;;5053680;28;20025;-50
2024/01/16 03:28:42;;;;;;;9.10;5.20;;;1.10;99.90;;;;;;5053520;28;20040;-56
2024/01/16 03:31:08;;;;;;;10.67;5.27;;;1.20;99.90;;;;;;5053597;28;20500;-56
2024/01/16 03:33:34;;;;;;;12.77;5.93;;;1.20;99.90;;;;;;5053507;28;20539;-55
2024/01/16 03:36:00;;;;;;;10.63;5.50;;;1.10;99.90;;;;;;5053479;28;20056;-57
2024/01/16 03:38:27;;;;;;;10.23;5.07;;;1.10;99.90;;;;;;5053304;28;20436;-57
2024/01/16 03:40:52;;;;;;;13.60;5.20;;;1.10;99.90;;;;;;5053102;28;20060;-54
2024/01/16 03:43:18;;;;;;;12.23;5.23;;;1.20;99.90;;;;;;5053260;28;20056;-52
2024/01/16 03:45:44;;;;;;;13.47;5.63;;;1.20;99.90;;;;;;5053224;28;20028;-51
2024/01/16 03:48:09;;;;;;;12.20;5.67;;;1.10;99.90;;;;;;5053286;28;20457;-53
2024/01/16 03:50:36;;;;;;;16.43;6.57;;;1.10;99.90;;;;;;5052972;28;20061;-50
2024/01/16 03:53:03;;;;;;;16.10;5.50;;;1.10;99.90;;;;;;5053067;28;20104;-53
2024/01/16 03:55:30;;;;;;;13.27;5.83;;;1.10;99.90;;;;;;5053036;28;20029;-52
2024/01/16 03:57:56;;;;;;;16.50;6.50;;;1.20;99.90;;;;;;5052960;28;20079;-52
2024/01/16 04:00:21;;;;;;;15.43;5.93;;;1.20;99.90;;;;;;5052797;28;20024;-50
2024/01/16 04:02:47;;;;;;;15.60;5.67;;;1.20;99.90;;;;;;5052775;28;20032;-53
2024/01/16 04:05:13;;;;;;;13.80;5.73;;;1.20;99.90;;;;;;5052934;28;20071;-52
2024/01/16 04:07:38;;;;;;;13.33;5.43;;;1.20;99.90;;;;;;5052837;28;20025;-51
2024/01/16 04:10:06;;;;;;;11.13;5.37;;;1.20;99.90;;;;;;5052482;28;20482;-50
2024/01/16 04:12:32;;;;;;;11.80;5.13;;;1.20;99.90;;;;;;5051576;28;20178;-54
2024/01/16 04:14:57;;;;;;;13.37;5.33;;;1.10;99.90;;;;;;5052469;28;20112;-54
2024/01/16 04:17:23;;;;;;;13.27;5.07;;;1.00;99.90;;;;;;5052368;28;20040;-52
2024/01/16 04:19:49;;;;;;;12.17;5.10;;;1.00;99.90;;;;;;5048429;28;20027;-53
2024/01/16 04:22:16;;;;;;;14.77;5.40;;;1.00;99.90;;;;;;5048557;28;20049;-50
2024/01/16 04:24:41;;;;;;;10.00;4.60;;;1.10;99.90;;;;;;5047891;28;20382;-53
2024/01/16 04:27:07;;;;;;;10.87;4.77;;;1.10;99.90;;;;;;5048986;28;20036;-54
2024/01/16 04:29:33;;;;;;;9.23;4.10;;;1.10;99.90;;;;;;5049133;28;20033;-53
2024/01/16 04:31:59;;;;;;;8.43;4.10;;;1.10;99.90;;;;;;5050051;28;20454;-51
2024/01/16 04:34:25;;;;;;;14.13;4.30;;;1.20;99.90;;;;;;5048498;28;20098;-53
2024/01/16 04:36:50;;;;;;;13.10;4.07;;;1.20;99.90;;;;;;5047370;28;20033;-52
2024/01/16 04:39:16;;;;;;;9.53;4.10;;;1.20;99.90;;;;;;5048554;28;20040;-52
2024/01/16 04:41:42;;;;;;;9.73;3.70;;;1.20;99.90;;;;;;5047840;28;20036;-53
2024/01/16 04:44:07;;;;;;;7.60;3.20;;;1.10;99.90;;;;;;5048125;28;20033;-53
2024/01/16 04:46:33;;;;;;;8.57;3.40;;;1.20;99.90;;;;;;5049331;28;20112;-51
2024/01/16 04:48:58;;;;;;;7.60;3.23;;;1.20;99.90;;;;;;5048664;28;20444;-52
2024/01/16 04:51:24;;;;;;;7.43;3.33;;;1.20;99.90;;;;;;5048689;28;20035;-51
2024/01/16 04:53:49;;;;;;;8.00;2.57;;;1.20;99.90;;;;;;5049789;28;20102;-54
2024/01/16 04:56:15;;;;;;;5.93;2.60;;;1.20;99.90;;;;;;5048414;28;20371;-52
2024/01/16 04:58:41;;;;;;;5.50;2.20;;;1.20;99.90;;;;;;5048334;28;20094;-52
2024/01/16 05:01:06;;;;;;;7.10;2.97;;;1.20;99.90;;;;;;5030290;28;20029;-53
2024/01/16 05:03:32;;;;;;;9.13;3.03;;;1.20;99.90;;;;;;5051410;28;20024;-50
2024/01/16 05:05:57;;;;;;;4.67;2.17;;;1.20;99.90;;;;;;5052207;28;20028;-52
2024/01/16 05:08:24;;;;;;;6.57;2.20;;;1.20;99.90;;;;;;5051735;28;20052;-55
2024/01/16 05:10:49;;;;;;;6.53;2.23;;;1.30;99.90;;;;;;5051614;28;20119;-52
2024/01/16 05:13:15;;;;;;;5.97;2.17;;;1.20;99.90;;;;;;5051726;28;20057;-54
2024/01/16 05:15:42;;;;;;;6.53;2.50;;;1.30;99.90;;;;;;5051765;28;20417;-50
2024/01/16 05:18:07;;;;;;;6.83;2.37;;;1.30;99.90;;;;;;5051590;28;20039;-53
2024/01/16 05:20:33;;;;;;;9.07;2.13;;;1.20;99.90;;;;;;5051437;28;20116;-54
2024/01/16 05:22:58;;;;;;;7.33;2.70;;;1.20;99.90;;;;;;5051391;28;20470;-54
2024/01/16 05:25:24;;;;;;;6.40;2.33;;;1.10;99.90;;;;;;5051581;28;20138;-54
2024/01/16 05:27:50;;;;;;;8.13;2.83;;;1.10;99.90;;;;;;5051277;28;20029;-53
2024/01/16 05:30:16;;;;;;;7.33;2.73;;;1.10;99.90;;;;;;5050934;28;20039;-55
2024/01/16 05:32:41;;;;;;;7.53;3.53;;;1.00;99.90;;;;;;5051255;28;20035;-55
2024/01/16 05:35:09;;;;;;;13.27;3.77;;;1.00;99.90;;;;;;5051504;28;20052;-53
2024/01/16 05:37:35;;;;;;;8.13;3.40;;;0.90;99.90;;;;;;5054219;28;20470;-54
2024/01/16 05:40:02;;;;;;;10.87;4.50;;;0.90;99.90;;;;;;5050765;28;20095;-54
2024/01/16 05:42:28;;;;;;;9.23;4.73;;;0.90;99.90;;;;;;5050039;28;20334;-55
2024/01/16 05:44:54;;;;;;;11.13;4.27;;;0.90;99.90;;;;;;5056330;28;20025;-55
2024/01/16 05:47:20;;;;;;;14.40;5.37;;;0.80;99.90;;;;;;5055068;28;20535;-56
2024/01/16 05:49:45;;;;;;;13.40;4.97;;;0.90;99.90;;;;;;5054982;28;20028;-55
2024/01/16 05:52:11;;;;;;;13.50;6.10;;;0.80;99.90;;;;;;5054759;28;20386;-54
2024/01/16 05:54:36;;;;;;;14.80;6.27;;;0.90;99.90;;;;;;5055370;28;20077;-52
2024/01/16 05:57:02;;;;;;;15.87;6.23;;;0.90;99.90;;;;;;5055089;28;20177;-54
2024/01/16 05:59:28;;;;;;;11.60;5.77;;;0.90;99.90;;;;;;5055046;28;20029;-55
2024/01/16 06:01:54;;;;;;;17.57;6.87;;;0.90;99.90;;;;;;5055044;28;20068;-55
2024/01/16 06:04:19;;;;;;;18.27;7.03;;;0.80;99.90;;;;;;5055219;28;20025;-56
2024/01/16 06:06:47;;;;;;;12.33;5.90;;;0.80;99.90;;;;;;5055491;28;20107;-55
2024/01/16 06:09:14;;;;;;;13.43;6.13;;;0.80;99.90;;;;;;5055337;28;20043;-54
2024/01/16 06:11:40;;;;;;;11.10;5.43;;;0.80;99.90;;;;;;5054877;28;20029;-50
2024/01/16 06:14:07;;;;;;;18.03;6.13;;;0.70;99.90;;;;;;5054457;28;20516;-53
2024/01/16 06:16:33;;;;;;;19.40;6.30;;;0.60;99.90;;;;;;5053740;28;20072;-53
2024/01/16 06:18:58;;;;;;;12.13;5.53;;;0.70;99.90;;;;;;5054106;28;20061;-56
2024/01/16 06:21:24;;;;;;;18.27;5.03;;;0.70;99.90;;;;;;5054711;28;20052;-55
2024/01/16 06:23:50;;;;;;;14.43;4.93;;;0.70;99.90;;;;;;5054676;28;20036;-51
2024/01/16 06:26:15;;;;;;;12.57;4.83;;;0.70;99.90;;;;;;5054950;28;20033;-52
2024/01/16 06:28:42;;;;;;;14.77;5.40;;;0.70;99.90;;;;;;5054634;28;20120;-55
2024/01/16 06:31:08;;;;;;;16.40;5.43;;;0.60;99.90;;;;;;5054513;28;20044;-54
2024/01/16 06:33:34;;;;;;;13.87;5.80;;;0.60;99.90;;;;;;5054489;28;20035;-56
2024/01/16 06:36:00;;;;;;;10.37;5.17;;;0.50;99.90;;;;;;5054510;28;20108;-55
2024/01/16 06:38:26;;;;;;;13.70;5.73;;;0.50;99.90;;;;;;5054385;28;20029;-57
2024/01/16 06:40:52;;;;;;;13.00;5.33;;;0.50;99.90;;;;;;5053095;28;20029;-54
2024/01/16 06:43:18;;;;;;;13.17;4.77;;;0.40;99.90;;;;;;5054454;28;20028;-52
2024/01/16 06:45:44;;;;;;;13.03;5.53;;;0.40;99.90;;;;;;5054473;28;20021;-51
2024/01/16 06:48:10;;;;;;;14.73;4.50;;;0.40;99.90;;;;;;5053413;28;20056;-53
2024/01/16 06:50:35;;;;;;;10.57;4.83;;;0.30;99.90;;;;;;5050270;28;20126;-55
2024/01/16 06:53:01;;;;;;;9.30;4.53;;;0.30;99.90;;;;;;5050565;28;20041;-56
2024/01/16 06:55:27;;;;;;;8.87;4.03;;;0.40;99.90;;;;;;5053327;28;20067;-53
2024/01/16 06:57:53;;;;;;;12.50;3.90;;;0.40;99.90;;;;;;5050752;28;20212;-55
2024/01/16 07:00:19;;;;;;;10.10;3.53;;;0.30;99.90;;;;;;5050517;28;20029;-53
2024/01/16 07:02:45;;;;;;;9.33;4.20;;;0.30;99.90;;;;;;5050378;28;20397;-51
2024/01/16 07:05:12;;;;;;;9.77;3.40;;;0.30;99.90;;;;;;5053335;28;20032;-53
2024/01/16 07:07:37;;;;;;;12.27;3.37;;;0.30;99.90;;;;;;5054403;28;20029;-55
2024/01/16 07:10:03;;;;;;;6.93;3.17;;;0.20;99.90;;;;;;5052758;28;20040;-54
2024/01/16 07:12:29;;;;;;;10.77;3.57;;;0.30;99.90;;;;;;5054278;28;20079;-55
2024/01/16 07:14:55;;;;;;;13.77;3.87;;;0.30;99.90;;;;;;5054242;28;20024;-53
2024/01/16 07:17:20;;;;;;;11.43;3.13;;;0.30;99.90;;;;;;5052658;28;20068;-58
2024/01/16 07:19:46;;;;;;;12.90;2.83;;;0.40;99.90;;;;;;5053548;28;20032;-53
2024/01/16 07:22:11;;;;;;;7.97;2.93;;;0.40;99.90;;;;;;5053833;28;20060;-55
2024/01/16 07:24:37;;;;;;;13.80;4.13;;;0.40;99.90;;;;;;5053639;28;20025;-51
2024/01/16 07:27:02;;;;;;;7.80;2.40;;;0.40;99.90;;;;;;5053704;28;20481;-54
2024/01/16 07:29:28;;;;;;;7.23;2.77;;;0.40;99.90;;;;;;5053495;28;20074;-53
2024/01/16 07:31:54;;;;;;;8.73;2.43;;;0.40;99.90;;;;;;5053356;28;20478;-57
2024/01/16 07:34:21;;;;;;;9.63;3.17;;;0.40;99.90;;;;;;5053476;28;20035;-54
2024/01/16 07:36:47;;;;;;;11.13;2.33;;;0.30;99.90;;;;;;5053527;28;20052;-55
2024/01/16 07:39:14;;;;;;;6.07;2.10;;;0.30;99.90;;;;;;5053236;28;20033;-56
2024/01/16 07:41:40;;;;;;;8.17;2.10;;;0.40;99.90;;;;;;5053306;28;20025;-56
2024/01/16 07:44:06;;;;;;;8.83;2.40;;;0.40;99.90;;;;;;5053310;28;20033;-56
2024/01/16 07:46:31;;;;;;;12.23;2.20;;;0.40;99.90;;;;;;5053444;28;20075;-57
2024/01/16 07:48:57;;;;;;;10.27;2.37;;;0.30;99.90;;;;;;5053042;28;20041;-55
2024/01/16 07:51:23;;;;;;;4.47;1.67;;;0.30;99.90;;;;;;5053089;28;20096;-56
2024/01/16 07:53:51;;;;;;;5.90;2.43;;;0.40;99.90;;;;;;5053177;28;20021;-54
2024/01/16 07:56:17;;;;;;;9.38;2.65;;;0.40;99.90;;;;;;5053113;28;20036;-57
2024/01/16 07:58:43;;;;;;;4.03;2.10;;;0.40;99.90;;;;;;5052875;28;20029;-52
2024/01/16 08:01:08;;;;;;;7.17;1.63;;;0.40;99.90;;;;;;5052522;28;20088;-52
2024/01/16 08:03:34;;;;;;;10.50;1.73;;;0.40;99.90;;;;;;5053373;28;20051;-52
2024/01/16 08:05:59;;;;;;;6.27;2.00;;;0.50;99.90;;;;;;5053396;28;20021;-54
2024/01/16 08:08:25;;;;;;;7.93;1.53;;;0.50;99.90;;;;;;5053232;28;20032;-53
2024/01/16 08:10:51;;;;;;;4.47;1.73;;;0.50;99.90;;;;;;5053030;28;20029;-56
2024/01/16 08:13:16;;;;;;;7.00;2.20;;;0.60;99.90;;;;;;5053015;28;20540;-54
2024/01/16 08:15:42;;;;;;;5.53;1.90;;;0.50;99.90;;;;;;5053086;28;20033;-57
2024/01/16 08:18:08;;;;;;;6.63;1.60;;;0.60;99.90;;;;;;5052841;28;20044;-50
2024/01/16 08:20:33;;;;;;;4.43;1.60;;;0.60;99.90;;;;;;5052767;28;20025;-54
2024/01/16 08:22:59;;;;;;;5.37;1.87;;;0.70;99.90;;;;;;5051388;28;20024;-55
2024/01/16 08:25:24;;;;;;;9.83;2.03;;;0.70;99.90;;;;;;5052985;28;20048;-52
2024/01/16 08:27:50;;;;;;;6.67;2.13;;;0.70;99.90;;;;;;5052906;28;20021;-54
2024/01/16 08:30:16;;;;;;;4.13;1.83;;;0.70;99.90;;;;;;5052596;28;20044;-56
2024/01/16 08:32:41;;;;;;;5.30;2.13;;;0.70;99.90;;;;;;5052654;28;20155;-56
2024/01/16 08:35:08;;;;;;;6.27;1.40;;;0.80;99.90;;;;;;5052789;28;20078;-55
2024/01/16 08:37:34;;;;;;;7.00;1.77;;;0.90;99.90;;;;;;5052641;28;20132;-54
2024/01/16 08:40:00;;;;;;;5.93;1.67;;;0.90;99.90;;;;;;5052339;28;20040;-54
2024/01/16 08:42:26;;;;;;;4.67;1.80;;;0.90;99.90;;;;;;5052128;28;20477;-55
2024/01/16 08:44:52;;;;;;;6.27;1.80;;;0.80;99.90;;;;;;5052621;28;20106;-54
2024/01/16 08:47:17;;;;;;;5.27;1.70;;;0.80;99.90;;;;;;5051124;28;20069;-53
2024/01/16 08:49:43;;;;;;;5.20;2.03;;;0.80;99.90;;;;;;5052403;28;20040;-54
2024/01/16 08:52:09;;;;;;;5.27;1.50;;;0.80;99.90;;;;;;5052267;28;20440;-53
2024/01/16 08:54:35;;;;;;;11.20;2.13;;;0.80;99.90;;;;;;5052366;28;20025;-55
2024/01/16 08:57:01;;;;;;;8.30;2.27;;;0.80;99.90;;;;;;5052417;28;20492;-56
2024/01/16 08:59:28;;;;;;;5.03;1.83;;;0.80;99.90;;;;;;5052151;28;20033;-54
2024/01/16 09:01:53;;;;;;;8.40;1.80;;;0.80;99.90;;;;;;5051922;28;20123;-57
2024/01/16 09:04:19;;;;;;;8.73;1.80;;;0.80;99.90;;;;;;5052208;28;20056;-55
2024/01/16 09:06:45;;;;;;;7.13;1.87;;;0.80;99.90;;;;;;5052249;28;20017;-58
2024/01/16 09:09:12;;;;;;;6.87;1.70;;;0.80;99.90;;;;;;5052143;28;20037;-58
2024/01/16 09:11:38;;;;;;;4.60;1.60;;;0.80;99.90;;;;;;5051592;28;20075;-54
2024/01/16 09:14:03;;;;;;;12.97;2.57;;;0.80;99.90;;;;;;5052019;28;20049;-57
2024/01/16 09:16:29;;;;;;;9.10;2.00;;;0.90;99.90;;;;;;5052101;28;20520;-57
2024/01/16 09:18:54;;;;;;;10.20;1.90;;;0.80;99.90;;;;;;5051952;28;20039;-57
2024/01/16 09:21:20;;;;;;;6.97;1.43;;;0.90;99.90;;;;;;5051965;28;20497;-54
2024/01/16 09:23:46;;;;;;;6.03;1.47;;;1.00;99.90;;;;;;5051378;28;20033;-52
2024/01/16 09:26:11;;;;;;;4.83;1.63;;;1.00;99.90;;;;;;5051971;28;20021;-57
2024/01/16 09:28:37;;;;;;;7.73;1.80;;;1.10;99.90;;;;;;5051855;28;20029;-57
2024/01/16 09:31:03;;;;;;;7.87;1.73;;;1.10;99.90;;;;;;5050266;28;20083;-57
2024/01/16 09:33:29;;;;;;;8.67;1.90;;;1.10;99.90;;;;;;5051590;28;20118;-54
2024/01/16 09:35:54;;;;;;;7.27;1.70;;;1.20;99.90;;;;;;5051934;28;20076;-53
2024/01/16 09:38:20;;;;;;;3.60;1.57;;;1.20;99.90;;;;;;5051760;28;20029;-55
2024/01/16 09:40:47;;;;;;;6.73;1.80;;;1.20;99.90;;;;;;5051722;28;20028;-57
2024/01/16 09:43:13;;;;;;;7.63;2.40;;;1.20;99.90;;;;;;5050459;28;20104;-54
2024/01/16 09:45:39;;;;;;;5.90;1.93;;;1.20;99.90;;;;;;5051748;28;20471;-53
2024/01/16 09:48:08;;;;;;;3.93;1.80;;;1.20;99.90;;;;;;5051403;28;20029;-55
2024/01/16 09:50:35;;;;;;;4.40;1.70;;;1.20;99.90;;;;;;5051185;28;20036;-54
2024/01/16 09:53:00;;;;;;;9.27;1.87;;;1.20;99.90;;;;;;5051329;28;20419;-57
2024/01/16 09:55:26;;;;;;;6.07;1.70;;;1.30;99.90;;;;;;5051455;28;20035;-54
2024/01/16 09:57:55;;;;;;;7.30;1.87;;;1.30;99.90;;;;;;5051241;28;20067;-55
2024/01/16 10:00:21;;;;;;;9.90;2.33;;;1.30;99.90;;;;;;5051102;28;20032;-56
2024/01/16 10:02:47;;;;;;;3.97;1.57;;;1.30;99.90;;;;;;5051089;28;20021;-55
2024/01/16 10:05:13;;;;;;;5.40;1.87;;;1.30;99.90;;;;;;5051380;28;20403;-53
2024/01/16 10:07:43;;;;;;;5.97;2.07;;;1.30;99.90;;;;;;5049957;28;20029;-52
2024/01/16 10:10:10;;;;;;;;;;;1.40;99.90;;;;;;5051501;28;20033;-53
2024/01/16 10:12:39;;;;;;;3.87;1.60;;;1.40;99.90;;;;;;5051009;28;19916;-56
2024/01/16 10:15:08;;;;;;;9.93;1.93;;;1.40;99.90;;;;;;5051408;28;20029;-53
2024/01/16 10:17:39;;;;;;;6.82;1.83;;;1.40;99.90;;;;;;5051071;28;20033;-55
2024/01/16 10:20:06;;;;;;;7.57;2.13;;;1.50;99.90;;;;;;5050696;28;20478;-52
2024/01/16 10:22:32;;;;;;;4.70;1.73;;;1.60;99.90;;;;;;5050984;28;20028;-56
2024/01/16 10:25:08;;;;;;;6.67;1.90;;;1.70;99.90;;;;;;5054090;28;20025;-57
2024/01/16 10:27:35;;;;;;;5.73;1.73;;;1.80;99.90;;;;;;5054759;28;20060;-56
2024/01/16 10:30:03;;;;;;;5.50;1.70;;;1.80;99.90;;;;;;5054547;28;20431;-56
2024/01/16 10:32:31;;;;;;;5.30;1.60;;;1.80;99.90;;;;;;5054608;28;20061;-53
2024/01/16 10:35:08;;;;;;;8.13;1.70;;;1.80;99.90;;;;;;5054697;28;20071;-54
2024/01/16 10:37:53;;;;;;;3.10;1.50;;;1.80;99.90;;;;;;5054500;28;20120;-57
2024/01/16 10:40:25;;;;;;;6.67;1.73;;;1.80;99.90;;;;;;5054355;28;20025;-56
2024/01/16 10:43:00;;;;;;;4.97;1.73;;;1.90;99.90;;;;;;5054380;28;20432;-55
2024/01/16 10:45:26;;;;;;;7.17;1.80;;;1.90;99.90;;;;;;5054425;28;20060;-54
2024/01/16 10:48:05;;;;;;;4.67;1.97;;;1.80;99.90;;;;;;5054307;28;20049;-54
2024/01/16 10:50:32;;;;;;;7.43;1.85;;;1.90;99.90;;;;;;5054208;28;20025;-55
2024/01/16 10:53:08;;;;;;;5.50;2.03;;;2.20;99.90;;;;;;5054234;28;20028;-55
2024/01/16 10:55:53;;;;;;;9.13;2.10;;;2.40;99.90;;;;;;5054263;28;20497;-56
2024/01/16 10:58:22;;;;;;;4.30;2.03;;;2.70;99.90;;;;;;5054174;28;20053;-56
2024/01/16 11:00:50;;;;;;;;;;;2.90;99.90;;;;;;5054641;28;20025;-56
2024/01/16 11:03:26;;;;;;;8.33;2.10;;;3.00;99.90;;;;;;5054107;28;19909;-54
2024/01/16 11:05:52;;;;;;;6.80;2.30;;;3.20;99.90;;;;;;5054107;28;20033;-58
2024/01/16 11:08:18;;;;;;;6.53;1.70;;;3.50;99.90;;;;;;5053944;28;20033;-56
2024/01/16 11:10:45;;;;;;;7.93;2.23;;;3.80;99.90;;;;;;5053758;28;20025;-52
2024/01/16 11:13:11;;;;;;;5.77;2.43;;;4.20;99.90;;;;;;5053753;28;20083;-53
2024/01/16 11:15:40;;;;;;;7.33;2.37;;;4.30;99.90;;;;;;5054044;28;20029;-50
2024/01/16 11:18:07;;;;;;;11.57;2.00;;;4.80;99.90;;;;;;5053816;28;20532;-52
2024/01/16 11:20:35;;;;;;;6.67;2.10;;;5.30;99.90;;;;;;5053635;28;20401;-52
2024/01/16 11:23:01;;;;;;;8.30;2.30;;;5.70;99.90;;;;;;5053659;28;20025;-54
2024/01/16 11:25:33;;;;;;;9.33;2.43;;;6.00;99.90;;;;;;5053661;28;20017;-56
2024/01/16 11:28:13;;;;;;;5.50;2.13;;;6.50;99.90;;;;;;5053667;28;20052;-56
2024/01/16 11:30:40;;;;;;;6.97;1.90;;;6.30;99.90;;;;;;5053478;28;20025;-56
2024/01/16 11:33:26;;;;;;;6.87;1.87;;;6.10;99.90;;;;;;5053488;28;20505;-55
2024/01/16 11:35:52;;;;;;;6.90;2.23;;;5.80;99.90;;;;;;5052915;28;20025;-54
2024/01/16 11:38:20;;;;;;;5.47;1.90;;;6.40;99.90;;;;;;5053317;28;20398;-54
2024/01/16 11:40:47;;;;;;;5.23;2.03;;;7.60;99.90;;;;;;5053270;28;20036;-54
2024/01/16 11:43:32;;;;;;;8.77;2.35;;;8.60;99.90;;;;;;5053270;28;20112;-56
2024/01/16 11:45:58;;;;;;;8.93;2.15;;;9.50;95.70;;;;;;5053308;28;20489;-56
2024/01/16 11:48:24;;;;;;;5.85;2.20;;;9.50;95.10;;;;;;5053202;28;20072;-56
2024/01/16 11:50:51;;;;;;;8.77;2.58;;;9.40;94.00;;;;;;5053254;28;20025;-56
2024/01/16 11:53:38;;;;;;;6.03;2.35;;;8.90;95.00;;;;;;5053325;28;20021;-56
2024/01/16 11:56:12;;;;;;;6.63;2.17;;;8.20;96.80;;;;;;5053054;28;20055;-55
2024/01/16 11:59:07;;;;;;;7.73;2.57;;;7.90;97.10;;;;;;5052856;28;20029;-57
2024/01/16 12:01:35;;;;;;;7.65;2.28;;;8.50;96.70;;;;;;5052779;28;20124;-53
2024/01/16 12:04:07;;;;;;;7.18;2.08;;;9.40;94.70;;;;;;5052871;28;20501;-57
2024/01/16 12:06:35;;;;;;;5.60;2.10;;;10.00;92.70;;;;;;5052867;28;20396;-54
2024/01/16 12:09:14;;;;;;;8.60;2.20;;;10.20;93.10;;;;;;5052633;28;20041;-53
2024/01/16 12:11:39;;;;;;;;;;;10.20;92.80;;;;;;5053302;28;20474;-52
2024/01/16 12:14:05;;;;;;;6.20;2.00;;;10.00;92.00;;;;;;5052701;28;19915;-54
2024/01/16 12:16:31;;;;;;;5.10;2.22;;;9.70;91.80;;;;;;5052691;28;20029;-55
2024/01/16 12:19:10;;;;;;;6.65;2.45;;;8.90;91.70;;;;;;5052519;28;20084;-51
2024/01/16 12:21:39;;;;;;;6.45;2.45;;;7.90;94.50;;;;;;5052353;28;20036;-57
2024/01/16 12:24:05;;;;;;;;;;;7.20;95.80;;;;;;5052808;28;20035;-55
2024/01/16 12:26:31;;;;;;;8.30;2.17;;;6.90;97.00;;;;;;5052774;28;20275;-54
2024/01/16 12:28:57;;;;;;;8.57;2.40;;;6.50;97.80;;;;;;5052468;28;20072;-54
2024/01/16 12:31:24;;;;;;;6.53;2.43;;;6.20;97.80;;;;;;5052303;28;20114;-56
2024/01/16 12:33:53;;;;;;;5.03;2.13;;;5.90;98.90;;;;;;5052385;28;20037;-55
2024/01/16 12:36:18;;;;;;;8.35;2.25;;;5.80;99.80;;;;;;5052290;28;20036;-56
2024/01/16 12:38:44;;;;;;;4.83;1.70;;;5.60;99.90;;;;;;5051995;28;20036;-52
2024/01/16 12:41:11;;;;;;;6.17;1.93;;;5.70;99.90;;;;;;5052141;28;20048;-52
2024/01/16 12:43:37;;;;;;;7.87;2.20;;;6.20;99.50;;;;;;5052031;28;20037;-53
2024/01/16 12:46:03;;;;;;;8.53;2.40;;;6.20;99.30;;;;;;5051379;28;20037;-55
2024/01/16 12:48:29;;;;;;;7.13;2.20;;;5.80;99.30;;;;;;5052040;28;20033;-51
2024/01/16 12:51:05;;;;;;;7.53;2.20;;;5.40;99.90;;;;;;5051789;28;20469;-51
2024/01/16 12:53:36;;;;;;;5.00;1.97;;;5.00;99.90;;;;;;5051945;28;20044;-53